Time;durP1;ratioP1;P1;durP2;ratioP2;P2;SDS_P1;SDS_P2;PMS_P1;PMS_P2;Temp;Humidity;BMP_temperature;BMP_pressure;BME280_temperature;BME280_humidity;BME280_pressure;Samples;Min_cycle;Max_cycle;Signal;HPM_P1;HPM_P2
2023/12/14 00:02:07;;;;;;;0.40;0.20;;;7.10;99.90;;;;;;5136388;27;20414;-58
2023/12/14 00:04:34;;;;;;;0.50;0.20;;;7.20;99.90;;;;;;5135941;27;20425;-58
2023/12/14 00:07:01;;;;;;;0.63;0.20;;;7.10;99.90;;;;;;5136387;27;20431;-60
2023/12/14 00:09:29;;;;;;;0.40;0.20;;;7.20;99.90;;;;;;5136548;27;20418;-57
2023/12/14 00:11:56;;;;;;;0.45;0.20;;;7.20;99.90;;;;;;5136139;27;20443;-58
2023/12/14 00:14:23;;;;;;;0.70;0.20;;;7.20;99.90;;;;;;5135521;27;20472;-58
2023/12/14 00:16:58;;;;;;;0.50;0.20;;;7.20;99.90;;;;;;5135905;27;20406;-58
2023/12/14 00:19:25;;;;;;;1.10;0.20;;;7.30;99.90;;;;;;5136040;27;20491;-56
2023/12/14 00:21:52;;;;;;;0.90;0.20;;;7.30;99.90;;;;;;5135796;27;20437;-57
2023/12/14 00:24:19;;;;;;;0.70;0.20;;;7.20;99.90;;;;;;5136024;27;20411;-58
2023/12/14 00:26:48;;;;;;;0.40;0.20;;;7.10;99.90;;;;;;5135099;27;20784;-58
2023/12/14 00:29:15;;;;;;;1.10;0.20;;;7.10;99.90;;;;;;5135001;27;20414;-57
2023/12/14 00:31:42;;;;;;;0.70;0.30;;;7.20;99.90;;;;;;5135813;27;20422;-58
2023/12/14 00:34:09;;;;;;;0.40;0.30;;;7.10;99.90;;;;;;5136083;27;20418;-58
2023/12/14 00:36:36;;;;;;;0.53;0.30;;;7.00;99.90;;;;;;5135798;27;20419;-58
2023/12/14 00:39:03;;;;;;;0.80;0.30;;;6.90;99.90;;;;;;5135733;27;20451;-58
2023/12/14 00:41:30;;;;;;;0.50;0.20;;;7.00;99.90;;;;;;5135385;27;20857;-57
2023/12/14 00:43:58;;;;;;;0.60;0.30;;;7.10;99.90;;;;;;5135252;27;20433;-58
2023/12/14 00:46:25;;;;;;;0.50;0.30;;;7.00;99.90;;;;;;5135730;27;20479;-58
2023/12/14 00:48:52;;;;;;;0.70;0.30;;;7.00;99.90;;;;;;5135165;27;20483;-57
2023/12/14 00:51:19;;;;;;;1.10;0.40;;;7.00;99.90;;;;;;5136127;27;20826;-58
2023/12/14 00:53:46;;;;;;;0.70;0.30;;;6.90;99.90;;;;;;5135393;27;20422;-58
2023/12/14 00:56:13;;;;;;;0.70;0.30;;;7.00;99.90;;;;;;5135730;27;20456;-58
2023/12/14 00:58:40;;;;;;;0.93;0.20;;;7.00;99.90;;;;;;5135263;27;20421;-58
2023/12/14 01:01:09;;;;;;;0.50;0.20;;;7.10;99.90;;;;;;5135823;27;20419;-58
2023/12/14 01:03:35;;;;;;;0.55;0.28;;;7.10;99.90;;;;;;5135153;27;20733;-58
2023/12/14 01:06:03;;;;;;;0.52;0.20;;;7.10;99.90;;;;;;5135507;27;20741;-58
2023/12/14 01:08:29;;;;;;;0.60;0.30;;;7.10;99.90;;;;;;5135191;27;20711;-58
2023/12/14 01:10:57;;;;;;;0.70;0.30;;;7.00;99.90;;;;;;5135533;27;21004;-57
2023/12/14 01:13:23;;;;;;;0.80;0.30;;;6.90;99.90;;;;;;5134877;27;20422;-57
2023/12/14 01:15:51;;;;;;;0.50;0.30;;;6.90;99.90;;;;;;5135585;27;20471;-58
2023/12/14 01:18:19;;;;;;;0.45;0.30;;;6.90;99.90;;;;;;5135411;28;20516;-55
2023/12/14 01:20:46;;;;;;;0.50;0.20;;;7.00;99.90;;;;;;5135221;28;20475;-57
2023/12/14 01:23:13;;;;;;;0.70;0.20;;;7.20;99.90;;;;;;5136644;27;20414;-57
2023/12/14 01:25:40;;;;;;;1.40;0.30;;;7.30;99.90;;;;;;5139505;27;20414;-55
2023/12/14 01:28:08;;;;;;;1.15;0.30;;;7.40;99.90;;;;;;5138506;27;20557;-56
2023/12/14 01:30:35;;;;;;;0.80;0.30;;;7.40;99.90;;;;;;5137172;27;20433;-57
2023/12/14 01:33:02;;;;;;;0.50;0.30;;;7.40;99.90;;;;;;5137417;27;20410;-58
2023/12/14 01:35:30;;;;;;;0.40;0.20;;;7.50;99.90;;;;;;5137563;27;20776;-56
2023/12/14 01:37:57;;;;;;;0.70;0.20;;;7.60;99.90;;;;;;5138422;27;20522;-57
2023/12/14 01:40:24;;;;;;;0.50;0.20;;;7.60;99.90;;;;;;5138309;27;20425;-55
2023/12/14 01:42:51;;;;;;;0.40;0.20;;;7.60;99.90;;;;;;5111801;28;20416;-57
2023/12/14 01:45:18;;;;;;;0.60;0.20;;;7.60;99.90;;;;;;5118190;28;20485;-56
2023/12/14 01:47:45;;;;;;;0.60;0.30;;;7.50;99.90;;;;;;5118355;28;20431;-55
2023/12/14 01:50:12;;;;;;;0.60;0.25;;;7.60;99.90;;;;;;5118709;28;20536;-57
2023/12/14 01:52:41;;;;;;;0.50;0.25;;;7.60;99.90;;;;;;5118516;28;20480;-59
2023/12/14 01:55:08;;;;;;;0.30;0.20;;;7.60;99.90;;;;;;5117914;28;20839;-59
2023/12/14 01:57:35;;;;;;;2.20;0.30;;;7.70;99.90;;;;;;5116609;28;20882;-57
2023/12/14 02:00:02;;;;;;;0.50;0.20;;;7.70;99.90;;;;;;5117156;28;20431;-58
2023/12/14 02:02:29;;;;;;;0.80;0.30;;;7.50;99.90;;;;;;5116587;28;20503;-57
2023/12/14 02:04:56;;;;;;;0.43;0.20;;;7.50;99.90;;;;;;5117718;28;20412;-56
2023/12/14 02:07:23;;;;;;;0.50;0.28;;;7.50;99.90;;;;;;5117675;28;20432;-56
2023/12/14 02:09:52;;;;;;;0.40;0.30;;;7.40;99.90;;;;;;5117714;28;20428;-58
2023/12/14 02:12:19;;;;;;;0.40;0.20;;;7.50;99.90;;;;;;5117996;28;20696;-59
2023/12/14 02:14:46;;;;;;;1.70;0.20;;;7.40;99.90;;;;;;5117599;28;20415;-58
2023/12/14 02:17:13;;;;;;;0.50;0.20;;;7.40;99.90;;;;;;5117592;28;20464;-58
2023/12/14 02:19:40;;;;;;;0.70;0.20;;;7.50;99.90;;;;;;5117782;28;20832;-58
2023/12/14 02:22:07;;;;;;;0.60;0.30;;;7.60;99.90;;;;;;5118016;28;20783;-58
2023/12/14 02:24:35;;;;;;;0.40;0.20;;;7.60;99.90;;;;;;5117628;28;20424;-58
2023/12/14 02:27:02;;;;;;;1.10;0.20;;;7.50;99.90;;;;;;5117798;28;20717;-57
2023/12/14 02:29:29;;;;;;;0.40;0.20;;;7.60;99.90;;;;;;5118478;28;20416;-58
2023/12/14 02:31:56;;;;;;;0.40;0.20;;;7.70;99.90;;;;;;5118241;28;20417;-58
2023/12/14 02:34:24;;;;;;;0.70;0.20;;;7.50;99.90;;;;;;5118186;28;20544;-59
2023/12/14 02:36:51;;;;;;;0.80;0.20;;;7.50;99.90;;;;;;5117571;28;20515;-58
2023/12/14 02:39:18;;;;;;;0.50;0.20;;;7.50;99.90;;;;;;5116916;28;20424;-56
2023/12/14 02:41:47;;;;;;;0.40;0.20;;;7.50;99.90;;;;;;5128238;27;20910;-57
2023/12/14 02:44:14;;;;;;;0.40;0.20;;;7.40;99.90;;;;;;5138037;27;20411;-58
2023/12/14 02:46:41;;;;;;;0.75;0.20;;;7.40;99.90;;;;;;5138137;27;20414;-55
2023/12/14 02:49:08;;;;;;;0.50;0.20;;;7.30;99.90;;;;;;5137969;27;20418;-56
2023/12/14 02:51:35;;;;;;;0.40;0.13;;;7.20;99.90;;;;;;5138533;27;20433;-56
2023/12/14 02:54:02;;;;;;;0.40;0.20;;;7.30;99.90;;;;;;5138032;27;20883;-55
2023/12/14 02:56:29;;;;;;;1.63;0.20;;;7.30;99.90;;;;;;5137792;27;20410;-55
2023/12/14 02:58:57;;;;;;;0.60;0.20;;;7.30;99.90;;;;;;5137323;27;20410;-54
2023/12/14 03:01:24;;;;;;;0.50;0.20;;;7.30;99.90;;;;;;5138037;27;20833;-56
2023/12/14 03:03:51;;;;;;;1.03;0.20;;;7.40;99.90;;;;;;5137905;27;20495;-54
2023/12/14 03:06:18;;;;;;;0.50;0.20;;;7.40;99.90;;;;;;5138484;27;20419;-56
2023/12/14 03:08:45;;;;;;;0.57;0.20;;;7.40;99.90;;;;;;5137149;27;20434;-56
2023/12/14 03:11:22;;;;;;;0.50;0.20;;;7.50;99.90;;;;;;5137677;27;20414;-55
2023/12/14 03:13:49;;;;;;;0.50;0.30;;;7.70;99.90;;;;;;5137517;27;20502;-56
2023/12/14 03:16:18;;;;;;;1.20;0.20;;;7.70;99.90;;;;;;5136954;27;20483;-59
2023/12/14 03:18:45;;;;;;;0.50;0.20;;;7.90;99.90;;;;;;5138228;27;20471;-56
2023/12/14 03:21:12;;;;;;;0.50;0.20;;;8.00;99.90;;;;;;5137535;27;20475;-55
2023/12/14 03:23:39;;;;;;;0.50;0.20;;;8.00;99.90;;;;;;5137349;27;20419;-57
2023/12/14 03:26:06;;;;;;;0.77;0.30;;;8.10;99.90;;;;;;5137435;27;20833;-52
2023/12/14 03:28:33;;;;;;;0.50;0.30;;;8.00;99.90;;;;;;5136870;27;20442;-56
2023/12/14 03:31:01;;;;;;;0.50;0.20;;;7.80;99.90;;;;;;5137443;27;20423;-56
2023/12/14 03:33:30;;;;;;;0.60;0.30;;;7.70;99.90;;;;;;5137272;27;20429;-57
2023/12/14 03:35:57;;;;;;;1.10;0.30;;;7.50;99.90;;;;;;5137127;27;20425;-56
2023/12/14 03:38:24;;;;;;;0.50;0.20;;;7.40;99.90;;;;;;5136622;27;20407;-56
2023/12/14 03:40:51;;;;;;;0.50;0.30;;;7.40;99.90;;;;;;5136865;27;20433;-57
2023/12/14 03:43:18;;;;;;;1.52;0.47;;;7.50;99.90;;;;;;5136376;27;20530;-59
2023/12/14 03:45:45;;;;;;;0.60;0.30;;;7.60;99.90;;;;;;5136093;27;20480;-55
2023/12/14 03:48:12;;;;;;;0.88;0.30;;;7.70;99.90;;;;;;5137136;27;20503;-59
2023/12/14 03:50:40;;;;;;;0.57;0.30;;;7.80;99.90;;;;;;5136908;27;20818;-59
2023/12/14 03:53:07;;;;;;;0.50;0.20;;;7.80;99.90;;;;;;5136586;27;20896;-59
2023/12/14 03:55:35;;;;;;;1.42;0.30;;;7.90;99.90;;;;;;5134474;27;20437;-57
2023/12/14 03:58:02;;;;;;;0.90;0.30;;;8.00;99.90;;;;;;5136265;27;20426;-58
2023/12/14 04:00:29;;;;;;;0.40;0.20;;;7.90;99.90;;;;;;5136256;27;20808;-59
2023/12/14 04:02:56;;;;;;;0.50;0.30;;;7.80;99.90;;;;;;5137077;27;20487;-60
2023/12/14 04:05:24;;;;;;;1.20;0.30;;;7.70;99.90;;;;;;5136336;27;20475;-58
2023/12/14 04:07:52;;;;;;;0.50;0.20;;;7.70;99.90;;;;;;5136068;27;20422;-59
2023/12/14 04:10:19;;;;;;;0.40;0.20;;;7.60;99.90;;;;;;5136420;27;20422;-59
2023/12/14 04:12:46;;;;;;;0.50;0.30;;;7.70;99.90;;;;;;5136115;27;20418;-59
2023/12/14 04:15:13;;;;;;;0.40;0.20;;;7.60;99.90;;;;;;5136062;27;20414;-59
2023/12/14 04:17:40;;;;;;;0.40;0.20;;;7.60;99.90;;;;;;5135929;27;20842;-58
2023/12/14 04:20:08;;;;;;;0.53;0.30;;;7.50;99.90;;;;;;5136259;27;20766;-58
2023/12/14 04:22:35;;;;;;;0.60;0.30;;;7.50;99.90;;;;;;5135962;27;20543;-58
2023/12/14 04:25:04;;;;;;;0.40;0.30;;;7.50;99.90;;;;;;5135821;27;20881;-58
2023/12/14 04:27:31;;;;;;;0.70;0.22;;;7.60;99.90;;;;;;5135578;27;20455;-58
2023/12/14 04:29:58;;;;;;;0.50;0.20;;;7.70;99.90;;;;;;5135034;27;20734;-58
2023/12/14 04:32:25;;;;;;;0.60;0.30;;;7.70;99.90;;;;;;5134949;27;20414;-58
2023/12/14 04:34:52;;;;;;;0.60;0.30;;;7.80;99.90;;;;;;5136334;27;20414;-58
2023/12/14 04:37:19;;;;;;;0.60;0.30;;;7.80;99.90;;;;;;5135652;27;20426;-59
2023/12/14 04:39:46;;;;;;;0.50;0.40;;;7.90;99.90;;;;;;5135513;27;20423;-59
2023/12/14 04:42:14;;;;;;;0.60;0.30;;;8.00;99.90;;;;;;5134178;27;20496;-55
2023/12/14 04:44:41;;;;;;;0.50;0.30;;;8.10;99.90;;;;;;5134446;27;20419;-58
2023/12/14 04:47:09;;;;;;;0.60;0.30;;;8.10;99.90;;;;;;5134035;27;20414;-58
2023/12/14 04:49:36;;;;;;;0.90;0.40;;;7.90;99.90;;;;;;5134665;27;20503;-59
2023/12/14 04:52:03;;;;;;;1.00;0.40;;;7.80;99.90;;;;;;5135001;27;20451;-59
2023/12/14 04:54:30;;;;;;;2.20;0.40;;;7.80;99.90;;;;;;5135061;27;20444;-58
2023/12/14 04:56:57;;;;;;;0.63;0.40;;;7.90;99.90;;;;;;5134774;27;20714;-58
2023/12/14 04:59:25;;;;;;;0.70;0.40;;;7.90;99.90;;;;;;5134940;27;20775;-58
2023/12/14 05:01:52;;;;;;;2.22;0.40;;;7.90;99.90;;;;;;5135334;27;20411;-58
2023/12/14 05:04:19;;;;;;;0.60;0.40;;;8.00;99.90;;;;;;5134398;27;20707;-59
2023/12/14 05:06:48;;;;;;;0.90;0.40;;;8.00;99.90;;;;;;5134783;27;20418;-59
2023/12/14 05:09:15;;;;;;;1.10;0.30;;;8.10;99.90;;;;;;5134750;27;21247;-57
2023/12/14 05:11:44;;;;;;;0.70;0.30;;;8.10;99.90;;;;;;5134333;27;20830;-58
2023/12/14 05:14:11;;;;;;;1.00;0.30;;;8.10;99.90;;;;;;5134723;27;20414;-57
2023/12/14 05:16:39;;;;;;;0.90;0.40;;;8.10;99.90;;;;;;5135702;27;20719;-58
2023/12/14 05:19:06;;;;;;;0.70;0.40;;;8.00;99.90;;;;;;5135179;28;20414;-57
2023/12/14 05:21:33;;;;;;;0.50;0.30;;;7.80;99.90;;;;;;5134426;28;20422;-57
2023/12/14 05:24:00;;;;;;;0.70;0.40;;;7.70;99.90;;;;;;5133965;28;20900;-56
2023/12/14 05:26:27;;;;;;;0.80;0.40;;;7.60;99.90;;;;;;5133305;28;20509;-57
2023/12/14 05:28:54;;;;;;;1.10;0.40;;;7.60;99.90;;;;;;5134126;28;20430;-58
2023/12/14 05:31:21;;;;;;;0.90;0.40;;;7.60;99.90;;;;;;5135054;28;20407;-58
2023/12/14 05:33:49;;;;;;;0.70;0.40;;;7.60;99.90;;;;;;5134941;28;20422;-58
2023/12/14 05:36:17;;;;;;;0.90;0.40;;;7.50;99.90;;;;;;5135131;28;20422;-58
2023/12/14 05:38:44;;;;;;;1.98;0.40;;;7.50;99.90;;;;;;5134999;28;20495;-57
2023/12/14 05:41:11;;;;;;;0.70;0.40;;;7.40;99.90;;;;;;5134892;28;20419;-58
2023/12/14 05:43:38;;;;;;;0.80;0.40;;;7.50;99.90;;;;;;5134246;28;20501;-57
2023/12/14 05:46:06;;;;;;;0.93;0.30;;;7.50;99.90;;;;;;5134250;28;20422;-56
2023/12/14 05:48:33;;;;;;;0.60;0.40;;;7.50;99.90;;;;;;5134238;28;20438;-58
2023/12/14 05:51:02;;;;;;;1.10;0.40;;;7.50;99.90;;;;;;5133632;28;20850;-57
2023/12/14 05:53:29;;;;;;;1.30;0.50;;;7.60;99.90;;;;;;5134836;28;20411;-57
2023/12/14 05:55:56;;;;;;;0.98;0.47;;;7.70;99.90;;;;;;5135030;28;20766;-56
2023/12/14 05:58:23;;;;;;;0.70;0.50;;;7.50;99.90;;;;;;5134402;28;20461;-56
2023/12/14 06:00:50;;;;;;;1.00;0.50;;;7.60;99.90;;;;;;5134607;28;20471;-57
2023/12/14 06:03:17;;;;;;;1.08;0.50;;;7.60;99.90;;;;;;5133942;28;20482;-55
2023/12/14 06:05:44;;;;;;;1.33;0.50;;;7.60;99.90;;;;;;5133930;28;20837;-55
2023/12/14 06:08:13;;;;;;;0.60;0.40;;;7.50;99.90;;;;;;5134506;27;20431;-55
2023/12/14 06:10:40;;;;;;;0.93;0.50;;;7.50;99.90;;;;;;5138117;27;20414;-55
2023/12/14 06:13:07;;;;;;;0.70;0.40;;;7.40;99.90;;;;;;5136820;27;20467;-56
2023/12/14 06:15:34;;;;;;;0.70;0.40;;;7.40;99.90;;;;;;5137774;27;20471;-56
2023/12/14 06:18:01;;;;;;;0.80;0.50;;;7.50;99.90;;;;;;5135631;27;20837;-60
2023/12/14 06:20:28;;;;;;;1.30;0.50;;;7.50;99.90;;;;;;5136196;27;20838;-57
2023/12/14 06:22:55;;;;;;;0.90;0.50;;;7.50;99.90;;;;;;5137040;27;20418;-57
2023/12/14 06:25:30;;;;;;;0.90;0.50;;;7.40;99.90;;;;;;5136273;27;20426;-55
2023/12/14 06:27:57;;;;;;;0.80;0.40;;;7.50;99.90;;;;;;5136566;27;20414;-55
2023/12/14 06:30:24;;;;;;;0.70;0.40;;;7.60;99.90;;;;;;5136088;27;20418;-54
2023/12/14 06:32:51;;;;;;;0.87;0.40;;;7.80;99.90;;;;;;5137630;27;20530;-53
2023/12/14 06:35:18;;;;;;;0.90;0.40;;;7.90;99.90;;;;;;5136081;27;20410;-58
2023/12/14 06:37:45;;;;;;;0.75;0.40;;;8.00;99.90;;;;;;5135556;27;20414;-57
2023/12/14 06:40:12;;;;;;;1.10;0.40;;;8.10;99.90;;;;;;5136894;27;20778;-57
2023/12/14 06:42:42;;;;;;;1.40;0.50;;;8.10;99.90;;;;;;5129098;27;20421;-57
2023/12/14 06:45:10;;;;;;;0.90;0.43;;;8.20;99.90;;;;;;5116116;28;20424;-57
2023/12/14 06:47:37;;;;;;;1.20;0.50;;;8.10;99.90;;;;;;5116116;28;20432;-56
2023/12/14 06:50:05;;;;;;;1.60;0.50;;;8.10;99.90;;;;;;5116745;28;20743;-57
2023/12/14 06:52:32;;;;;;;1.00;0.50;;;8.10;99.90;;;;;;5116298;28;20778;-56
2023/12/14 06:54:59;;;;;;;0.60;0.40;;;8.00;99.90;;;;;;5115538;28;20424;-57
2023/12/14 06:57:26;;;;;;;1.80;0.50;;;7.90;99.90;;;;;;5115335;28;20592;-59
2023/12/14 06:59:54;;;;;;;0.70;0.40;;;7.80;99.90;;;;;;5111756;27;20733;-56
2023/12/14 07:02:21;;;;;;;1.00;0.50;;;8.00;99.90;;;;;;5126342;27;20426;-58
2023/12/14 07:04:48;;;;;;;0.80;0.50;;;8.10;99.90;;;;;;5114355;27;20465;-57
2023/12/14 07:07:17;;;;;;;0.70;0.50;;;8.30;99.90;;;;;;5116399;28;20700;-56
2023/12/14 07:09:46;;;;;;;0.82;0.50;;;8.30;99.90;;;;;;5116157;28;20525;-58
2023/12/14 07:12:13;;;;;;;0.80;0.50;;;8.10;99.90;;;;;;5114316;28;20930;-57
2023/12/14 07:14:40;;;;;;;1.80;0.50;;;8.20;99.90;;;;;;5114094;28;20516;-59
2023/12/14 07:17:08;;;;;;;1.20;0.50;;;8.30;99.90;;;;;;5114274;27;20473;-58
2023/12/14 07:19:35;;;;;;;1.10;0.63;;;8.30;99.90;;;;;;5134777;27;20414;-59
2023/12/14 07:22:02;;;;;;;1.10;0.60;;;8.10;99.90;;;;;;5129765;27;20430;-60
2023/12/14 07:24:30;;;;;;;0.90;0.50;;;8.00;99.90;;;;;;5130310;27;20473;-59
2023/12/14 07:26:57;;;;;;;1.15;0.60;;;7.90;99.90;;;;;;5113247;28;20546;-59
2023/12/14 07:29:24;;;;;;;1.48;0.80;;;7.80;99.90;;;;;;5113629;28;20451;-58
2023/12/14 07:31:51;;;;;;;1.30;0.57;;;7.60;99.90;;;;;;5113345;28;20435;-58
2023/12/14 07:34:20;;;;;;;1.30;0.70;;;7.60;99.90;;;;;;5113794;28;20440;-58
2023/12/14 07:36:47;;;;;;;1.50;0.70;;;7.50;99.90;;;;;;5113933;28;20891;-58
2023/12/14 07:39:14;;;;;;;0.90;0.60;;;7.50;99.90;;;;;;5113979;28;20416;-56
2023/12/14 07:41:41;;;;;;;1.55;0.70;;;7.70;99.90;;;;;;5124296;27;20422;-58
2023/12/14 07:44:08;;;;;;;0.95;0.60;;;7.80;99.90;;;;;;5114338;28;20412;-59
2023/12/14 07:46:39;;;;;;;1.00;0.57;;;8.20;99.90;;;;;;5113978;28;20456;-58
2023/12/14 07:49:06;;;;;;;0.97;0.60;;;8.30;99.90;;;;;;5113597;28;20485;-58
2023/12/14 07:51:34;;;;;;;1.60;0.70;;;8.10;99.90;;;;;;5112615;28;20428;-58
2023/12/14 07:54:03;;;;;;;0.90;0.52;;;8.00;99.90;;;;;;5117940;27;20426;-55
2023/12/14 07:56:30;;;;;;;1.53;0.60;;;8.00;99.90;;;;;;5134799;27;20511;-58
2023/12/14 07:58:57;;;;;;;1.40;0.70;;;7.90;99.90;;;;;;5134811;27;20410;-57
2023/12/14 08:01:24;;;;;;;1.20;0.70;;;7.80;99.90;;;;;;5134053;27;20479;-57
2023/12/14 08:03:51;;;;;;;1.40;0.70;;;7.70;99.90;;;;;;5129737;27;20411;-56
2023/12/14 08:06:18;;;;;;;1.52;0.75;;;7.60;99.90;;;;;;5127770;27;20427;-57
2023/12/14 08:08:46;;;;;;;1.23;0.70;;;7.50;99.90;;;;;;5127758;27;20427;-57
2023/12/14 08:11:13;;;;;;;1.40;0.77;;;7.40;99.90;;;;;;5127609;27;20688;-54
2023/12/14 08:13:40;;;;;;;2.20;0.80;;;7.30;99.90;;;;;;5109419;27;20412;-57
2023/12/14 08:16:11;;;;;;;1.30;0.73;;;7.30;99.90;;;;;;5107485;28;20415;-55
2023/12/14 08:18:38;;;;;;;2.40;0.80;;;7.30;99.90;;;;;;5109309;28;20720;-56
2023/12/14 08:21:05;;;;;;;2.30;0.80;;;7.30;99.90;;;;;;5112742;28;20858;-56
2023/12/14 08:23:32;;;;;;;1.70;0.80;;;7.30;99.90;;;;;;5111383;28;20416;-55
2023/12/14 08:26:00;;;;;;;2.10;0.70;;;7.20;99.90;;;;;;5112306;28;21042;-59
2023/12/14 08:28:27;;;;;;;1.50;0.70;;;7.20;99.90;;;;;;5111978;28;20473;-55
2023/12/14 08:30:54;;;;;;;2.20;0.80;;;7.20;99.90;;;;;;5111722;28;20428;-56
2023/12/14 08:33:21;;;;;;;2.50;0.70;;;7.20;99.90;;;;;;5110986;28;20431;-57
2023/12/14 08:35:48;;;;;;;1.35;0.70;;;7.20;99.90;;;;;;5111304;28;20432;-56
2023/12/14 08:38:16;;;;;;;1.70;0.88;;;7.20;99.90;;;;;;5112298;28;20463;-55
2023/12/14 08:40:43;;;;;;;2.40;0.70;;;7.50;99.90;;;;;;5111893;27;20415;-55
2023/12/14 08:43:12;;;;;;;2.85;1.00;;;7.70;99.90;;;;;;5113778;28;20498;-56
2023/12/14 08:45:48;;;;;;;2.53;0.88;;;7.60;99.90;;;;;;5112217;28;20420;-52
2023/12/14 08:48:15;;;;;;;1.48;0.70;;;7.40;99.90;;;;;;5112906;28;20909;-54
2023/12/14 08:50:42;;;;;;;1.35;0.80;;;7.40;99.90;;;;;;5112641;28;20428;-55
2023/12/14 08:53:09;;;;;;;2.00;0.80;;;7.40;99.90;;;;;;5113169;28;20416;-56
2023/12/14 08:55:36;;;;;;;2.30;0.80;;;7.30;99.90;;;;;;5129316;27;20496;-56
2023/12/14 08:58:03;;;;;;;1.60;0.70;;;7.40;99.90;;;;;;5131947;27;20419;-55
2023/12/14 09:00:31;;;;;;;1.80;0.98;;;7.60;99.90;;;;;;5130455;27;20471;-56
2023/12/14 09:02:58;;;;;;;1.92;0.70;;;8.10;99.90;;;;;;5130238;27;20418;-54
2023/12/14 09:05:26;;;;;;;1.80;0.90;;;8.30;99.90;;;;;;5131318;27;20519;-57
2023/12/14 09:07:56;;;;;;;2.00;0.70;;;8.20;99.90;;;;;;5131368;27;20513;-56
2023/12/14 09:10:23;;;;;;;1.67;0.73;;;8.30;99.90;;;;;;5131109;27;20438;-55
2023/12/14 09:12:50;;;;;;;1.30;0.80;;;8.40;99.90;;;;;;5118904;27;20431;-57
2023/12/14 09:15:17;;;;;;;2.72;0.90;;;8.60;99.90;;;;;;5103961;28;20436;-55
2023/12/14 09:17:45;;;;;;;1.92;0.80;;;8.70;99.90;;;;;;5105366;28;20520;-54
2023/12/14 09:20:12;;;;;;;1.38;0.70;;;8.60;99.90;;;;;;5098595;28;20450;-57
2023/12/14 09:22:39;;;;;;;1.90;0.90;;;8.80;99.90;;;;;;5108573;28;20420;-57
2023/12/14 09:25:09;;;;;;;1.40;0.60;;;8.80;99.90;;;;;;5111341;28;20424;-57
2023/12/14 09:27:36;;;;;;;1.40;0.80;;;9.10;99.90;;;;;;5111072;28;20936;-58
2023/12/14 09:30:04;;;;;;;2.35;0.93;;;9.00;99.90;;;;;;5107443;28;20432;-58
2023/12/14 09:32:31;;;;;;;1.30;0.80;;;8.80;99.90;;;;;;5105268;28;20420;-59
2023/12/14 09:34:59;;;;;;;3.17;0.90;;;8.70;99.90;;;;;;5111145;28;20789;-58
2023/12/14 09:37:26;;;;;;;2.10;0.80;;;8.70;99.90;;;;;;5112680;28;20436;-58
2023/12/14 09:39:53;;;;;;;2.00;0.85;;;8.80;99.90;;;;;;5109637;28;21006;-57
2023/12/14 09:42:22;;;;;;;1.83;0.90;;;8.60;99.90;;;;;;5111579;28;20867;-58
2023/12/14 09:44:49;;;;;;;2.50;0.90;;;8.50;99.90;;;;;;5111250;28;20443;-58
2023/12/14 09:47:17;;;;;;;2.40;0.95;;;8.60;99.90;;;;;;5115740;28;20428;-57
2023/12/14 09:49:45;;;;;;;1.80;1.00;;;8.70;99.90;;;;;;5116402;28;20428;-57
2023/12/14 09:52:14;;;;;;;1.80;1.10;;;8.70;99.90;;;;;;5116085;28;20477;-57
2023/12/14 09:54:41;;;;;;;2.30;1.00;;;8.70;99.90;;;;;;5116168;28;20482;-59
2023/12/14 09:57:08;;;;;;;1.80;1.00;;;8.70;99.90;;;;;;5113606;28;20484;-58
2023/12/14 09:59:35;;;;;;;2.67;1.10;;;8.80;99.90;;;;;;5112004;28;20424;-58
2023/12/14 10:02:12;;;;;;;1.90;1.10;;;8.70;99.90;;;;;;5106162;28;20502;-57
2023/12/14 10:04:39;;;;;;;2.35;1.20;;;8.80;99.90;;;;;;5112352;28;20428;-58
2023/12/14 10:07:07;;;;;;;1.52;1.10;;;8.80;99.90;;;;;;5106007;28;20745;-58
2023/12/14 10:09:37;;;;;;;2.50;1.10;;;8.90;99.90;;;;;;5113867;28;20428;-57
2023/12/14 10:12:06;;;;;;;2.05;1.00;;;9.00;99.90;;;;;;5111490;28;20428;-59
2023/12/14 10:14:34;;;;;;;1.90;0.90;;;9.10;99.90;;;;;;5108363;27;20439;-58
2023/12/14 10:17:16;;;;;;;2.50;1.20;;;9.30;99.90;;;;;;5115771;28;20443;-58
2023/12/14 10:19:44;;;;;;;2.80;1.10;;;9.40;99.90;;;;;;5113194;27;20803;-59
2023/12/14 10:22:11;;;;;;;2.10;1.20;;;9.40;99.90;;;;;;5119225;27;20477;-58
2023/12/14 10:24:40;;;;;;;3.22;1.15;;;9.40;99.90;;;;;;5104164;27;20429;-58
2023/12/14 10:27:08;;;;;;;3.13;1.10;;;9.30;99.90;;;;;;5108576;28;20434;-58
2023/12/14 10:29:35;;;;;;;1.30;0.90;;;9.30;99.90;;;;;;5113063;28;20859;-58
2023/12/14 10:32:06;;;;;;;1.73;1.00;;;9.30;99.90;;;;;;5112750;28;20766;-58
2023/12/14 10:34:33;;;;;;;2.60;0.90;;;9.40;99.90;;;;;;5102748;28;20463;-59
2023/12/14 10:37:01;;;;;;;2.38;1.00;;;9.40;99.90;;;;;;5104865;28;20758;-58
2023/12/14 10:39:30;;;;;;;1.50;0.98;;;9.50;99.90;;;;;;5111058;28;20419;-59
2023/12/14 10:42:03;;;;;;;2.30;0.90;;;9.60;99.90;;;;;;5111414;27;20430;-59
2023/12/14 10:44:36;;;;;;;2.00;0.80;;;9.50;99.90;;;;;;5130286;27;20450;-59
2023/12/14 10:47:05;;;;;;;1.50;0.80;;;9.50;99.90;;;;;;5122586;27;20424;-58
2023/12/14 10:49:34;;;;;;;2.00;0.80;;;9.50;99.90;;;;;;5123723;27;20901;-59
2023/12/14 10:52:04;;;;;;;1.30;0.70;;;9.50;99.90;;;;;;5124855;27;20432;-59
2023/12/14 10:54:34;;;;;;;2.58;0.80;;;9.50;99.90;;;;;;5114570;27;20557;-58
2023/12/14 10:57:05;;;;;;;2.10;0.80;;;9.60;99.90;;;;;;5105808;28;20429;-59
2023/12/14 10:59:32;;;;;;;1.73;0.70;;;9.60;99.90;;;;;;5123369;27;20726;-59
2023/12/14 11:01:59;;;;;;;1.25;0.80;;;9.50;99.90;;;;;;5120121;27;20417;-59
2023/12/14 11:04:28;;;;;;;2.13;0.73;;;9.50;99.90;;;;;;5116239;27;20481;-59
2023/12/14 11:06:55;;;;;;;1.70;0.80;;;9.50;99.90;;;;;;5115281;28;20918;-59
2023/12/14 11:09:24;;;;;;;2.42;0.80;;;9.50;99.90;;;;;;5113915;28;20424;-59
2023/12/14 11:11:59;;;;;;;3.92;0.90;;;9.50;99.90;;;;;;5115985;27;20452;-59
2023/12/14 11:14:29;;;;;;;2.30;0.98;;;9.50;99.90;;;;;;5121258;27;20438;-59
2023/12/14 11:16:57;;;;;;;2.45;0.98;;;9.60;99.90;;;;;;5112153;27;21030;-59
2023/12/14 11:19:31;;;;;;;2.22;0.90;;;9.70;99.90;;;;;;5113266;27;20699;-61
2023/12/14 11:22:24;;;;;;;2.00;0.90;;;9.70;99.90;;;;;;5112241;28;20497;-59
2023/12/14 11:24:56;;;;;;;1.45;1.00;;;9.60;99.90;;;;;;5099930;28;20423;-60
2023/12/14 11:27:33;;;;;;;1.42;0.80;;;9.50;99.90;;;;;;5104467;28;20737;-59
2023/12/14 11:30:03;;;;;;;1.77;0.85;;;9.50;99.90;;;;;;5111679;28;20435;-60
2023/12/14 11:32:30;;;;;;;1.80;0.80;;;9.60;99.90;;;;;;5103712;28;20862;-60
2023/12/14 11:34:58;;;;;;;1.70;0.80;;;9.60;99.90;;;;;;5108830;28;20414;-60
2023/12/14 11:37:25;;;;;;;1.70;0.95;;;9.70;99.90;;;;;;5109307;28;20530;-60
2023/12/14 11:39:54;;;;;;;2.08;0.90;;;9.70;99.90;;;;;;5113316;28;20476;-60
2023/12/14 11:42:21;;;;;;;2.33;0.90;;;9.80;99.90;;;;;;5111748;28;20432;-61
2023/12/14 11:44:48;;;;;;;1.45;0.80;;;9.80;99.90;;;;;;5111727;27;20881;-58
2023/12/14 11:47:17;;;;;;;2.00;0.90;;;9.80;99.90;;;;;;5112220;28;20428;-58
2023/12/14 11:49:44;;;;;;;2.40;0.90;;;9.70;99.90;;;;;;5113101;28;20416;-60
2023/12/14 11:52:11;;;;;;;1.60;0.80;;;9.70;99.90;;;;;;5111839;28;20424;-59
2023/12/14 11:54:38;;;;;;;1.50;0.80;;;9.70;99.90;;;;;;5112674;28;20432;-59
2023/12/14 11:57:08;;;;;;;1.30;0.70;;;9.70;99.90;;;;;;5113351;28;20420;-60
2023/12/14 11:59:37;;;;;;;1.30;0.70;;;9.70;99.90;;;;;;5111916;28;22041;-60
2023/12/14 12:02:04;;;;;;;1.10;0.60;;;9.70;99.90;;;;;;5113312;28;20447;-60
2023/12/14 12:04:32;;;;;;;1.70;0.60;;;9.70;99.90;;;;;;5114179;27;20420;-60
2023/12/14 12:07:04;;;;;;;1.20;0.50;;;9.70;99.90;;;;;;5111335;27;20478;-60
2023/12/14 12:09:38;;;;;;;0.80;0.40;;;9.60;61.00;;;;;;5111097;28;20480;-61
2023/12/14 12:12:09;;;;;;;0.70;0.40;;;9.60;56.80;;;;;;5112208;28;20819;-61
2023/12/14 12:14:36;;;;;;;0.98;0.40;;;9.60;62.70;;;;;;5110931;28;20439;-61
2023/12/14 12:17:05;;;;;;;1.20;0.40;;;9.60;33.90;;;;;;5109987;28;20423;-61
2023/12/14 12:19:34;;;;;;;1.20;0.43;;;9.50;36.90;;;;;;5111451;28;20507;-61
2023/12/14 12:22:01;;;;;;;1.00;0.40;;;9.40;55.00;;;;;;5112849;28;20502;-61
2023/12/14 12:24:28;;;;;;;0.70;0.40;;;9.50;43.80;;;;;;5114100;28;20420;-61
2023/12/14 12:26:56;;;;;;;0.80;0.50;;;9.40;56.50;;;;;;5113053;28;20855;-61
2023/12/14 12:29:23;;;;;;;0.70;0.40;;;9.30;69.30;;;;;;5112865;28;20420;-60
2023/12/14 12:31:50;;;;;;;0.70;0.40;;;9.50;58.50;;;;;;5111949;28;20424;-60
2023/12/14 12:34:17;;;;;;;0.80;0.40;;;9.50;58.10;;;;;;5114159;28;20861;-60
2023/12/14 12:36:46;;;;;;;0.90;0.40;;;9.50;86.80;;;;;;5111214;28;21038;-61
2023/12/14 12:39:14;;;;;;;0.77;0.50;;;9.50;70.70;;;;;;5106080;28;20428;-62
2023/12/14 12:41:41;;;;;;;1.70;0.30;;;9.50;39.50;;;;;;5112037;28;20882;-62
2023/12/14 12:44:08;;;;;;;0.57;0.30;;;9.20;1.00;;;;;;5108808;27;20432;-62
2023/12/14 12:46:36;;;;;;;1.30;0.40;;;8.90;25.60;;;;;;5125342;27;20430;-62
2023/12/14 12:49:06;;;;;;;0.50;0.30;;;8.80;49.40;;;;;;5120627;27;21346;-62
2023/12/14 12:51:33;;;;;;;0.80;0.40;;;8.80;55.70;;;;;;5114452;27;20512;-62
2023/12/14 12:54:03;;;;;;;0.60;0.30;;;8.80;96.50;;;;;;5131444;27;20884;-62
2023/12/14 12:56:30;;;;;;;0.60;0.30;;;9.00;99.90;;;;;;5133255;27;20438;-62
2023/12/14 12:58:57;;;;;;;0.60;0.30;;;9.10;98.40;;;;;;5124503;27;20415;-62
2023/12/14 13:01:25;;;;;;;1.20;0.30;;;9.00;88.10;;;;;;5127952;27;20483;-62